Pahrump, Nevada Weather observations

Data are for observation ending at time listed.
 Day   Time    Ave.   Ave.  Ave.  Vector   Max.   Stn.    Total    Solar   Ave.  
  of    of     Air    Rel.  Wind   Wind    Wind   Baro.  Precip.   Rad.    Soil  
Year   Day     Temp.  Hum.  Speed  Dir.    Gust   Pres.                    Temp. 
2015   (PST)    F      %     mph   deg.    mph     mb.     in.     W/m2     F   
------------------------------------------------------------------------------
 149    6:50   78.0    17    0.5   328      1.9   923.0    0.00       0    78.5
 149    7:00   79.2    16    0.6   299      2.5   923.2    0.00       0    78.8
 149    7:10   80.4    16    0.4   315      1.3   923.5    0.00       0    79.1
 149    7:20   81.1    16    1.1   318      2.1   923.7    0.00       0    79.5
 149    7:30   81.7    15    0.7   302      2.6   923.9    0.00       0    79.9
 149    7:40   82.8    15    1.1   314      3.1   924.2    0.00       0    80.4
 149    7:50   84.4    14    0.5   309      1.6   924.4    0.00       0    80.8
 149    8:00   84.1    14    0.9   328      4.1   924.6    0.00       0    81.2
 149    8:10   83.9    14    1.5   336      3.7   924.8    0.00       0    81.7
 149    8:20   85.3    13    1.5   329      4.2   924.8    0.00       0    82.2
 149    8:30   86.0    13    1.9   325      3.6   924.9    0.00     378    82.7
 149    8:40   87.1    13    1.6   292      3.5   925.0    0.00     726    83.3
 149    8:50   87.7    13    1.3   156      4.7   925.0    0.00     253    83.8
 149    9:00   88.0    13    1.3    66      3.6   925.1    0.00       0    84.4
 149    9:10   89.3    12    3.0   142      6.6   925.2    0.00       0    84.9
 149    9:20   88.6    12    2.5   177      6.9   925.2    0.00       0    85.5
 149    9:30   91.3    11    1.6   131      4.2   925.3    0.00       0    86.1
 149    9:40   91.2    12    1.6   193      5.1   925.4    0.00       0    86.6
 149    9:50   90.9    12    2.1   158      6.6   925.4    0.00       0    87.3
 149   10:00   93.3    11    1.9   206      5.3   925.4    0.00     618    87.8
 149   10:10   94.9    11    2.3   264      5.6   925.5    0.00     661    88.3
 149   10:20   94.1    11    2.3   156      5.6   925.5    0.00     859    88.8
 149   10:30   93.7    11    4.6   161     11.2   925.5    0.00     958    89.2
 149   10:40   93.2    11    4.3   181     12.0   925.4    0.00     973    89.6
 149   10:50   94.9    10    2.7   269      8.0   925.2    0.00     971    90.0
 149   11:00   95.6    10    4.6   224     10.7   925.2    0.00      72    90.2
 149   11:10   95.1    10    3.7   222     13.1   925.1    0.00       3    90.5
 149   11:20   95.2    10    3.1   205     10.8   925.0    0.00       2    90.9
 149   11:30   94.9    10    5.2   123     11.0   924.9    0.00       2    91.3
 149   11:40   95.6    10    5.4   156     12.3   924.7    0.00       2    91.7
 149   11:50   94.9    10   11.1   175     18.7   924.7    0.00       1    92.1
 149   12:00   94.5    10    6.7   169     14.6   924.6    0.00       0    92.4
 149   12:10   95.2    10    6.6   159     13.5   924.5    0.00       0    92.8
 149   12:20   95.9    10    3.1   225     10.5   924.4    0.00       0    93.1
 149   12:30   95.1    10    5.2   177     12.4   924.3    0.00       0    93.5
 149   12:40   95.9    10    6.9   176     16.4   924.3    0.00       0    93.7
 149   12:50   95.5    10    5.0   170     14.2   924.2    0.00       0    94.0
 149   13:00   96.2     9    2.7   194      7.7   924.1    0.00       0    94.2
 149   13:10   96.6     9    7.4   173     14.2   924.0    0.00     991    94.6
 149   13:20   96.4     9    2.2   186      6.1   923.9    0.00     983    94.8
 149   13:30   96.7     9    3.8   199     10.5   923.7    0.00     968    94.9
 149   13:40   96.4     9    3.7   170      8.2   923.7    0.00     952    95.1
 149   13:50   96.9    10    4.5   218      9.9   923.6    0.00     935    95.2
 149   14:00   96.9    10    4.7   268     12.2   923.5    0.00     917    95.3
 149   14:10   96.7    10    2.3   297      6.3   923.2    0.00     897    95.4
 149   14:20   97.1    10    4.2   248     10.0   923.1    0.00     876    95.4
 149   14:30   96.8     9    4.7   208     13.6   923.0    0.00     856    95.3
 149   14:40   96.3     9    5.5   191     10.1   922.8    0.00     188    95.1
 149   14:50   97.1     9    4.9   268     17.2   922.6    0.00     679    95.0
 149   15:00   97.3     9    4.7   289     14.6   922.3    0.00     777    94.7
 149   15:10   96.9     9    4.7   233     12.9   922.1    0.00     328    94.5
 149   15:20   96.4     9    5.0   246     11.8   922.0    0.00     124    94.2
 149   15:30   96.2     9    4.9   198     10.2   921.9    0.00       0    93.9
 149   15:40   95.6     9    3.9   221      7.8   921.7    0.00       0    93.6
 149   15:50   95.9     9    3.8   217     10.8   921.6    0.00       0    93.2
 149   16:00   95.8     9    4.2   229      8.7   921.6    0.00       0    93.0
 149   16:10   95.1     9    3.8   150      8.3   921.5    0.00       0    92.7
 149   16:20   95.5     9    3.2   263     12.9   921.4    0.00       0    92.4
 149   16:30   95.5     9    0.5   268      3.7   921.2    0.00       0    92.2
 149   16:40   95.1    10    0.4   257      5.1   921.2    0.00       0    91.9
 149   16:50   94.6     9    0.1   307      0.7   921.2    0.00       0    91.7
 149   17:00   94.0    10    0.2   281      1.9   921.1    0.00       0    91.4
 149   17:10   94.5    10    0.1   256      0.2   921.0    0.00       0    91.1
 149   17:20   94.4    10    0.1   223      0.1   921.0    0.00       0    90.9
 149   17:30   94.0    10    0.1   267      1.7   920.9    0.00       0    90.7
 149   17:40   94.0    10    0.1   275      0.1   920.8    0.00       0    90.4
 149   17:50   93.8    10    0.1   276      0.1   920.8    0.00       0    90.2
 149   18:00   93.6    10    0.1   273      0.1   920.7    0.00       0    90.1
 149   18:10   92.4    10    0.1   256      0.1   920.7    0.00       0    89.8
 149   18:20   91.7    11    0.1   258      0.1   920.7    0.00       0    89.7
 149   18:30   90.9    11    0.1   253      0.1   920.7    0.00       0    89.4
 149   18:40   90.4    11    0.1   244      0.1   920.7    0.00       0    89.2
 149   18:50   89.8    11    0.1   236      0.1   920.7    0.00       0    89.0
 149   19:00   89.0    11    0.1   226      0.1   920.6    0.00       0    88.8
 149   19:10   88.6    11    0.1   213      0.6   920.6    0.00       0    88.6
 149   19:20   88.7    11    0.1   212      1.6   920.6    0.00       0    88.4
 149   19:30   88.7    11    0.1   216      0.8   920.6    0.00       0    88.2
 149   19:40   88.6    11    0.2   199      2.9   920.7    0.00       0    88.0
 149   19:50   88.7    11    0.1   191      1.5   920.8    0.00       0    87.8
 149   20:00   88.8    11    0.1   176      0.4   920.8    0.00       0    87.6
 149   20:10   88.3    11    0.1   139      0.1   920.9    0.00       0    87.4
 149   20:20   87.0    11    0.1   133      0.1   920.9    0.00       0    87.2
 149   20:30   86.2    11    0.1   170      0.1   921.0    0.00       0    87.1
 149   20:40   85.9    11    0.0   122      0.1   921.0    0.00       0    86.8
 149   20:50   85.3    12    0.1   132      0.1   921.1    0.00       0    86.7
 149   21:00   85.1    12    0.1   120      0.1   921.1    0.00       0    86.5
 149   21:10   84.9    11    0.1   126      0.1   921.2    0.00       0    86.3
 149   21:20   85.3    11    0.1   133      0.1   921.3    0.00       0    86.2
 149   21:30   85.4    11    0.1   133      0.1   921.4    0.00       0    86.0
 149   21:40   85.4    11    0.1   130      0.1   921.5    0.00       0    85.8
 149   21:50   85.1    11    0.1   130      0.1   921.6    0.00       0    85.7
 149   22:00   85.2    11    0.1   131      0.1   921.6    0.00       0    85.6
 149   22:10   85.2    11    0.1   132      0.1   921.6    0.00       0    85.5
 149   22:20   85.4    11    0.1   136      0.1   921.6    0.00       0    85.4
 149   22:30   85.5    11    0.1   136      0.1   921.7    0.00       0    85.2
 149   22:40   85.8    11    0.1   135      0.1   921.7    0.00       0    85.1
 149   22:50   86.2    11    0.4   136     14.9   921.7    0.00       0    85.0
 149   23:00   86.0    11    0.1   135      0.2   921.8    0.00       0    84.9
 149   23:10   85.6    11    0.1   136      0.9   921.9    0.00       0    84.8
 149   23:20   85.5    11    0.1   138      0.1   921.8    0.00       0    84.7
 149   23:30   84.3    11    0.1   138      0.1   921.8    0.00       0    84.6
 149   23:40   83.9    11    0.1   146      0.1   921.8    0.00       0    84.5
 149   23:50   84.3    11    0.1   141      0.1   921.9    0.00       0    84.4
 150    0:00   84.1    11    0.1   145      0.1   921.9    0.00       0    84.3
 150    0:10   82.9    12    0.3   319      1.9   921.9    0.00       0    84.2
 150    0:20   78.2    14    1.5    12      3.6   921.9    0.00       0    84.1
 150    0:30   76.5    16    1.8   303      3.5   921.8    0.00       0    83.9
 150    0:40   75.6    16    1.2   340      4.4   921.6    0.00       0    83.8
 150    0:50   75.4    16    1.8    51      3.2   921.4    0.00       0    83.7
 150    1:00   75.4    15    0.3    70      2.3   921.3    0.00       0    83.5
 150    1:10   75.8    14    1.0   162      2.9   921.2    0.00       0    83.3
 150    1:20   77.6    14    1.4   183      3.3   921.1    0.00       0    83.2
 150    1:30   75.5    15    1.7   135      5.3   921.1    0.00       0    83.0
 150    1:40   77.9    13    5.1   104      7.7   921.0    0.00       0    82.8
 150    1:50   78.7    12    5.5    99      8.0   921.0    0.00       0    82.7
 150    2:00   79.1    13    7.0    96     10.2   921.1    0.00       0    82.5
 150    2:10   79.2    13    7.0    95     10.7   921.1    0.00       0    82.3
 150    2:20   79.2    13    6.5    93     10.4   921.1    0.00       0    82.2
 150    2:30   79.0    13    7.3   100     10.7   921.0    0.00       0    82.1
 150    2:40   78.9    13    7.0    98     10.4   921.0    0.00       0    82.0
 150    2:50   78.8    13    5.9   101     10.6   921.0    0.00       0    81.9
 150    3:00   77.8    14    3.4   222      7.4   921.0    0.00       0    81.8
 150    3:10   75.3    14    3.0   194      5.2   921.0    0.00       0    81.7
 150    3:20   73.3    16    1.7   222      3.9   921.0    0.00       0    81.5
 150    3:30   71.8    17    1.5   209      3.2   920.9    0.00       0    81.4
 150    3:40   71.7    16    2.4   181      3.9   920.8    0.00       0    81.3
 150    3:50   71.9    16    2.4   177      5.2   920.8    0.00       0    81.2
 150    4:00   72.0    16    2.4   138      3.7   920.8    0.00       0    81.1
 150    4:10   71.1    17    1.9   122      3.4   920.8    0.00       0    80.9
 150    4:20   70.5    18    0.6   227      1.8   920.8    0.00       0    80.7
 150    4:30   68.8    20    0.8   324      2.6   920.8    0.00       0    80.6
 150    4:40   67.0    20    1.7    29      3.6   920.8    0.00       0    80.4
 150    4:50   66.9    20    1.3    42      3.3   920.9    0.00       0    80.3
 150    5:00   67.3    20    1.2    49      3.1   921.0    0.00       0    80.2
 150    5:10   68.3    19    0.8    46      2.1   921.1    0.00       0    80.0
 150    5:20   72.1    17    0.8    50      2.6   921.2    0.00       0    79.9
 150    5:30   74.4    16    1.0     5      2.8   921.4    0.00       0    79.7
 150    5:40   74.9    16    1.0    49      3.4   921.6    0.00       0    79.6
 150    5:50   75.0    16    0.9   325      4.3   921.7    0.00       0    79.6
 150    6:00   75.7    18    1.5   296      4.1   922.0    0.00       0    79.6
 150    6:10   76.1    19    0.5   305      2.3   922.2    0.00       0    79.6
 150    6:20   78.7    17    0.3   251      1.6   922.4    0.00       0    79.7
 150    6:30   78.8    17    0.7   288      2.3   922.5    0.00       0    79.8
 150    6:40   77.9    18    1.8   303      4.3   922.7    0.00       0    80.0

Return to Pahrump, Nevada graphs page.


Western Regional Climate Center,wrcc@dri.edu